sensor_id;sensor_type;location;lat;lon;timestamp;P1;durP1;ratioP1;P2;durP2;ratioP2
54023;SDS011;49584;38.820;-121.162;2022-09-09T00:06:31;9.93;;;2.20;;
54023;SDS011;49584;38.820;-121.162;2022-09-09T00:11:39;5.13;;;2.10;;
54023;SDS011;49584;38.820;-121.162;2022-09-09T00:16:48;7.03;;;2.15;;
54023;SDS011;49584;38.820;-121.162;2022-09-09T00:22:15;4.90;;;2.05;;
54023;SDS011;49584;38.820;-121.162;2022-09-09T00:27:37;7.43;;;2.40;;
54023;SDS011;49584;38.820;-121.162;2022-09-09T00:32:44;6.80;;;2.10;;
54023;SDS011;49584;38.820;-121.162;2022-09-09T00:37:50;8.15;;;2.28;;
54023;SDS011;49584;38.820;-121.162;2022-09-09T00:43:40;3.78;;;2.10;;
54023;SDS011;49584;38.820;-121.162;2022-09-09T00:48:34;5.22;;;2.15;;
54023;SDS011;49584;38.820;-121.162;2022-09-09T00:54:12;31.27;;;2.87;;
54023;SDS011;49584;38.820;-121.162;2022-09-09T00:59:32;8.82;;;2.20;;
54023;SDS011;49584;38.820;-121.162;2022-09-09T01:04:52;8.38;;;2.50;;
54023;SDS011;49584;38.820;-121.162;2022-09-09T01:09:58;10.48;;;2.45;;
54023;SDS011;49584;38.820;-121.162;2022-09-09T01:15:08;5.68;;;2.35;;
54023;SDS011;49584;38.820;-121.162;2022-09-09T01:25:27;8.32;;;2.65;;
54023;SDS011;49584;38.820;-121.162;2022-09-09T01:30:44;14.85;;;2.45;;
54023;SDS011;49584;38.820;-121.162;2022-09-09T01:40:55;10.27;;;2.60;;
54023;SDS011;49584;38.820;-121.162;2022-09-09T01:45:59;17.67;;;2.72;;
54023;SDS011;49584;38.820;-121.162;2022-09-09T01:51:02;21.52;;;2.97;;
54023;SDS011;49584;38.820;-121.162;2022-09-09T02:06:34;7.97;;;2.53;;
54023;SDS011;49584;38.820;-121.162;2022-09-09T02:11:38;5.97;;;2.60;;
54023;SDS011;49584;38.820;-121.162;2022-09-09T02:16:45;5.68;;;2.30;;
54023;SDS011;49584;38.820;-121.162;2022-09-09T02:26:49;11.20;;;2.75;;
54023;SDS011;49584;38.820;-121.162;2022-09-09T02:31:56;15.15;;;2.90;;
54023;SDS011;49584;38.820;-121.162;2022-09-09T02:37:03;14.25;;;2.50;;
54023;SDS011;49584;38.820;-121.162;2022-09-09T02:42:07;24.80;;;3.00;;
54023;SDS011;49584;38.820;-121.162;2022-09-09T02:52:40;17.55;;;3.47;;
54023;SDS011;49584;38.820;-121.162;2022-09-09T02:57:59;13.88;;;3.08;;
54023;SDS011;49584;38.820;-121.162;2022-09-09T03:03:05;17.92;;;2.80;;
54023;SDS011;49584;38.820;-121.162;2022-09-09T03:08:09;16.30;;;2.88;;
54023;SDS011;49584;38.820;-121.162;2022-09-09T03:13:11;20.20;;;2.80;;
54023;SDS011;49584;38.820;-121.162;2022-09-09T03:18:13;14.00;;;3.05;;
54023;SDS011;49584;38.820;-121.162;2022-09-09T03:23:14;9.00;;;3.00;;
54023;SDS011;49584;38.820;-121.162;2022-09-09T03:28:15;9.75;;;2.92;;
54023;SDS011;49584;38.820;-121.162;2022-09-09T03:33:17;11.77;;;2.90;;
54023;SDS011;49584;38.820;-121.162;2022-09-09T03:38:18;17.00;;;3.05;;
54023;SDS011;49584;38.820;-121.162;2022-09-09T03:43:19;12.25;;;3.00;;
54023;SDS011;49584;38.820;-121.162;2022-09-09T03:48:21;13.13;;;3.20;;
54023;SDS011;49584;38.820;-121.162;2022-09-09T03:53:23;16.23;;;2.90;;
54023;SDS011;49584;38.820;-121.162;2022-09-09T03:58:26;13.45;;;2.97;;
54023;SDS011;49584;38.820;-121.162;2022-09-09T04:03:27;13.00;;;3.33;;
54023;SDS011;49584;38.820;-121.162;2022-09-09T04:08:29;11.60;;;2.88;;
54023;SDS011;49584;38.820;-121.162;2022-09-09T04:13:34;10.27;;;2.90;;
54023;SDS011;49584;38.820;-121.162;2022-09-09T04:18:37;10.60;;;2.80;;
54023;SDS011;49584;38.820;-121.162;2022-09-09T04:23:39;15.75;;;3.00;;
54023;SDS011;49584;38.820;-121.162;2022-09-09T04:28:40;18.40;;;3.10;;
54023;SDS011;49584;38.820;-121.162;2022-09-09T04:33:41;20.55;;;2.88;;
54023;SDS011;49584;38.820;-121.162;2022-09-09T04:38:42;14.18;;;2.85;;
54023;SDS011;49584;38.820;-121.162;2022-09-09T04:43:44;10.45;;;2.78;;
54023;SDS011;49584;38.820;-121.162;2022-09-09T04:48:45;9.82;;;2.75;;
54023;SDS011;49584;38.820;-121.162;2022-09-09T04:53:47;15.50;;;3.00;;
54023;SDS011;49584;38.820;-121.162;2022-09-09T04:58:49;13.60;;;2.85;;
54023;SDS011;49584;38.820;-121.162;2022-09-09T05:03:50;18.52;;;3.30;;
54023;SDS011;49584;38.820;-121.162;2022-09-09T05:08:53;12.02;;;3.53;;
54023;SDS011;49584;38.820;-121.162;2022-09-09T05:13:55;9.18;;;2.80;;
54023;SDS011;49584;38.820;-121.162;2022-09-09T05:18:59;8.32;;;2.60;;
54023;SDS011;49584;38.820;-121.162;2022-09-09T05:24:00;12.40;;;2.90;;
54023;SDS011;49584;38.820;-121.162;2022-09-09T05:29:01;9.02;;;3.10;;
54023;SDS011;49584;38.820;-121.162;2022-09-09T05:34:02;10.60;;;2.88;;
54023;SDS011;49584;38.820;-121.162;2022-09-09T05:39:04;7.72;;;2.95;;
54023;SDS011;49584;38.820;-121.162;2022-09-09T05:44:05;14.10;;;3.20;;
54023;SDS011;49584;38.820;-121.162;2022-09-09T05:49:06;11.93;;;2.60;;
54023;SDS011;49584;38.820;-121.162;2022-09-09T05:54:08;13.98;;;3.05;;
54023;SDS011;49584;38.820;-121.162;2022-09-09T05:59:09;8.77;;;2.92;;
54023;SDS011;49584;38.820;-121.162;2022-09-09T06:04:12;10.02;;;3.05;;
54023;SDS011;49584;38.820;-121.162;2022-09-09T06:09:13;11.20;;;2.88;;
54023;SDS011;49584;38.820;-121.162;2022-09-09T06:14:15;9.43;;;2.90;;
54023;SDS011;49584;38.820;-121.162;2022-09-09T06:19:18;8.70;;;2.88;;
54023;SDS011;49584;38.820;-121.162;2022-09-09T06:24:20;12.52;;;2.60;;
54023;SDS011;49584;38.820;-121.162;2022-09-09T06:29:22;8.85;;;3.20;;
54023;SDS011;49584;38.820;-121.162;2022-09-09T06:34:23;13.07;;;3.17;;
54023;SDS011;49584;38.820;-121.162;2022-09-09T06:39:25;5.78;;;2.63;;
54023;SDS011;49584;38.820;-121.162;2022-09-09T06:44:26;9.32;;;3.13;;
54023;SDS011;49584;38.820;-121.162;2022-09-09T06:49:27;10.00;;;3.20;;
54023;SDS011;49584;38.820;-121.162;2022-09-09T06:54:28;7.05;;;2.90;;
54023;SDS011;49584;38.820;-121.162;2022-09-09T06:59:32;8.57;;;2.90;;
54023;SDS011;49584;38.820;-121.162;2022-09-09T07:04:33;12.32;;;3.35;;
54023;SDS011;49584;38.820;-121.162;2022-09-09T07:09:34;7.05;;;3.10;;
54023;SDS011;49584;38.820;-121.162;2022-09-09T07:14:36;8.48;;;3.00;;
54023;SDS011;49584;38.820;-121.162;2022-09-09T07:19:37;8.82;;;3.10;;
54023;SDS011;49584;38.820;-121.162;2022-09-09T07:24:38;5.00;;;2.72;;
54023;SDS011;49584;38.820;-121.162;2022-09-09T07:29:40;12.40;;;3.25;;
54023;SDS011;49584;38.820;-121.162;2022-09-09T07:34:41;6.35;;;3.03;;
54023;SDS011;49584;38.820;-121.162;2022-09-09T07:39:43;9.15;;;3.30;;
54023;SDS011;49584;38.820;-121.162;2022-09-09T07:44:44;7.88;;;3.20;;
54023;SDS011;49584;38.820;-121.162;2022-09-09T07:49:46;8.70;;;3.20;;
54023;SDS011;49584;38.820;-121.162;2022-09-09T07:54:49;8.40;;;2.90;;
54023;SDS011;49584;38.820;-121.162;2022-09-09T07:59:51;9.35;;;3.30;;
54023;SDS011;49584;38.820;-121.162;2022-09-09T08:04:52;7.75;;;3.30;;
54023;SDS011;49584;38.820;-121.162;2022-09-09T08:09:53;6.22;;;3.00;;
54023;SDS011;49584;38.820;-121.162;2022-09-09T08:14:55;13.13;;;3.47;;
54023;SDS011;49584;38.820;-121.162;2022-09-09T08:19:57;10.27;;;3.67;;
54023;SDS011;49584;38.820;-121.162;2022-09-09T08:24:58;11.73;;;3.75;;
54023;SDS011;49584;38.820;-121.162;2022-09-09T08:30:00;12.73;;;3.85;;
54023;SDS011;49584;38.820;-121.162;2022-09-09T08:35:01;10.20;;;4.40;;
54023;SDS011;49584;38.820;-121.162;2022-09-09T08:40:03;9.93;;;4.50;;
54023;SDS011;49584;38.820;-121.162;2022-09-09T08:50:25;9.68;;;4.53;;
54023;SDS011;49584;38.820;-121.162;2022-09-09T08:55:51;9.02;;;4.90;;
54023;SDS011;49584;38.820;-121.162;2022-09-09T09:06:25;8.48;;;5.43;;
54023;SDS011;49584;38.820;-121.162;2022-09-09T09:11:34;10.00;;;5.60;;
54023;SDS011;49584;38.820;-121.162;2022-09-09T09:16:42;17.92;;;6.28;;
54023;SDS011;49584;38.820;-121.162;2022-09-09T09:27:14;9.52;;;6.18;;
54023;SDS011;49584;38.820;-121.162;2022-09-09T09:32:35;12.65;;;6.95;;
54023;SDS011;49584;38.820;-121.162;2022-09-09T09:37:41;14.98;;;8.77;;
54023;SDS011;49584;38.820;-121.162;2022-09-09T09:42:48;14.75;;;9.43;;
54023;SDS011;49584;38.820;-121.162;2022-09-09T09:47:58;9.75;;;6.35;;
54023;SDS011;49584;38.820;-121.162;2022-09-09T09:53:02;12.88;;;7.10;;
54023;SDS011;49584;38.820;-121.162;2022-09-09T09:58:06;26.75;;;8.40;;
54023;SDS011;49584;38.820;-121.162;2022-09-09T10:03:21;14.63;;;9.45;;
54023;SDS011;49584;38.820;-121.162;2022-09-09T10:08:28;13.73;;;9.05;;
54023;SDS011;49584;38.820;-121.162;2022-09-09T10:13:34;30.92;;;23.77;;
54023;SDS011;49584;38.820;-121.162;2022-09-09T10:23:57;46.57;;;38.40;;
54023;SDS011;49584;38.820;-121.162;2022-09-09T10:39:36;69.60;;;53.38;;
54023;SDS011;49584;38.820;-121.162;2022-09-09T10:44:51;69.90;;;52.92;;
54023;SDS011;49584;38.820;-121.162;2022-09-09T10:55:24;269.38;;;204.35;;
54023;SDS011;49584;38.820;-121.162;2022-09-09T11:00:45;255.77;;;194.77;;
54023;SDS011;49584;38.820;-121.162;2022-09-09T11:05:53;300.20;;;233.98;;
54023;SDS011;49584;38.820;-121.162;2022-09-09T11:11:06;219.48;;;170.13;;
54023;SDS011;49584;38.820;-121.162;2022-09-09T11:21:47;333.63;;;259.60;;
54023;SDS011;49584;38.820;-121.162;2022-09-09T11:26:51;358.58;;;279.67;;
54023;SDS011;49584;38.820;-121.162;2022-09-09T11:32:12;398.38;;;307.50;;
54023;SDS011;49584;38.820;-121.162;2022-09-09T11:42:40;386.17;;;298.60;;
54023;SDS011;49584;38.820;-121.162;2022-09-09T11:47:50;369.52;;;282.80;;
54023;SDS011;49584;38.820;-121.162;2022-09-09T11:58:24;422.38;;;317.17;;
54023;SDS011;49584;38.820;-121.162;2022-09-09T12:03:33;358.83;;;279.90;;
54023;SDS011;49584;38.820;-121.162;2022-09-09T12:08:46;318.45;;;244.55;;
54023;SDS011;49584;38.820;-121.162;2022-09-09T12:13:55;363.63;;;282.67;;
54023;SDS011;49584;38.820;-121.162;2022-09-09T12:19:18;369.60;;;281.83;;
54023;SDS011;49584;38.820;-121.162;2022-09-09T12:30:01;400.80;;;301.35;;
54023;SDS011;49584;38.820;-121.162;2022-09-09T12:35:22;442.20;;;335.48;;
54023;SDS011;49584;38.820;-121.162;2022-09-09T12:40:29;457.90;;;358.55;;
54023;SDS011;49584;38.820;-121.162;2022-09-09T12:45:39;457.23;;;356.58;;
54023;SDS011;49584;38.820;-121.162;2022-09-09T12:50:45;495.15;;;389.52;;
54023;SDS011;49584;38.820;-121.162;2022-09-09T12:55:53;510.35;;;415.63;;
54023;SDS011;49584;38.820;-121.162;2022-09-09T13:00:55;518.92;;;427.85;;
54023;SDS011;49584;38.820;-121.162;2022-09-09T13:05:58;523.85;;;436.10;;
54023;SDS011;49584;38.820;-121.162;2022-09-09T13:11:15;540.47;;;456.05;;
54023;SDS011;49584;38.820;-121.162;2022-09-09T13:21:33;572.95;;;489.38;;
54023;SDS011;49584;38.820;-121.162;2022-09-09T13:26:35;591.10;;;503.17;;
54023;SDS011;49584;38.820;-121.162;2022-09-09T13:31:38;587.90;;;500.10;;
54023;SDS011;49584;38.820;-121.162;2022-09-09T13:36:40;590.63;;;514.05;;
54023;SDS011;49584;38.820;-121.162;2022-09-09T13:41:43;611.13;;;523.47;;
54023;SDS011;49584;38.820;-121.162;2022-09-09T13:46:45;578.40;;;494.13;;
54023;SDS011;49584;38.820;-121.162;2022-09-09T13:51:47;592.35;;;509.67;;
54023;SDS011;49584;38.820;-121.162;2022-09-09T13:56:50;585.40;;;500.83;;
54023;SDS011;49584;38.820;-121.162;2022-09-09T14:01:52;591.90;;;510.17;;
54023;SDS011;49584;38.820;-121.162;2022-09-09T14:06:53;593.15;;;504.92;;
54023;SDS011;49584;38.820;-121.162;2022-09-09T14:11:59;558.22;;;484.17;;
54023;SDS011;49584;38.820;-121.162;2022-09-09T14:17:00;562.80;;;475.55;;
54023;SDS011;49584;38.820;-121.162;2022-09-09T14:22:01;604.10;;;521.03;;
54023;SDS011;49584;38.820;-121.162;2022-09-09T14:27:03;558.03;;;472.25;;
54023;SDS011;49584;38.820;-121.162;2022-09-09T14:32:04;558.75;;;469.73;;
54023;SDS011;49584;38.820;-121.162;2022-09-09T14:37:05;566.00;;;477.48;;
54023;SDS011;49584;38.820;-121.162;2022-09-09T14:42:07;570.55;;;468.42;;
54023;SDS011;49584;38.820;-121.162;2022-09-09T14:47:08;574.50;;;491.15;;
54023;SDS011;49584;38.820;-121.162;2022-09-09T14:52:10;565.22;;;469.90;;
54023;SDS011;49584;38.820;-121.162;2022-09-09T14:57:11;584.78;;;490.67;;
54023;SDS011;49584;38.820;-121.162;2022-09-09T15:02:13;583.00;;;491.98;;
54023;SDS011;49584;38.820;-121.162;2022-09-09T15:07:14;573.33;;;490.05;;
54023;SDS011;49584;38.820;-121.162;2022-09-09T15:12:15;574.33;;;495.50;;
54023;SDS011;49584;38.820;-121.162;2022-09-09T15:17:19;601.78;;;512.88;;
54023;SDS011;49584;38.820;-121.162;2022-09-09T15:22:20;597.67;;;517.08;;
54023;SDS011;49584;38.820;-121.162;2022-09-09T15:27:22;598.35;;;508.70;;
54023;SDS011;49584;38.820;-121.162;2022-09-09T15:32:24;610.00;;;529.17;;
54023;SDS011;49584;38.820;-121.162;2022-09-09T15:37:25;633.22;;;545.38;;
54023;SDS011;49584;38.820;-121.162;2022-09-09T15:42:26;648.33;;;556.15;;
54023;SDS011;49584;38.820;-121.162;2022-09-09T15:47:27;680.30;;;583.15;;
54023;SDS011;49584;38.820;-121.162;2022-09-09T15:52:28;698.72;;;594.60;;
54023;SDS011;49584;38.820;-121.162;2022-09-09T15:57:29;684.20;;;574.40;;
54023;SDS011;49584;38.820;-121.162;2022-09-09T16:02:30;690.58;;;592.30;;
54023;SDS011;49584;38.820;-121.162;2022-09-09T16:07:32;709.95;;;603.40;;
54023;SDS011;49584;38.820;-121.162;2022-09-09T16:12:35;708.72;;;592.63;;
54023;SDS011;49584;38.820;-121.162;2022-09-09T16:17:36;681.45;;;579.70;;
54023;SDS011;49584;38.820;-121.162;2022-09-09T16:22:38;694.28;;;601.47;;
54023;SDS011;49584;38.820;-121.162;2022-09-09T16:27:40;642.78;;;557.42;;
54023;SDS011;49584;38.820;-121.162;2022-09-09T16:32:41;653.20;;;566.95;;
54023;SDS011;49584;38.820;-121.162;2022-09-09T16:37:42;713.78;;;612.22;;
54023;SDS011;49584;38.820;-121.162;2022-09-09T16:42:44;729.05;;;626.92;;
54023;SDS011;49584;38.820;-121.162;2022-09-09T16:47:45;713.22;;;616.33;;
54023;SDS011;49584;38.820;-121.162;2022-09-09T16:52:46;704.67;;;613.60;;
54023;SDS011;49584;38.820;-121.162;2022-09-09T16:57:47;694.85;;;607.75;;
54023;SDS011;49584;38.820;-121.162;2022-09-09T17:02:49;687.45;;;602.60;;
54023;SDS011;49584;38.820;-121.162;2022-09-09T17:07:50;704.60;;;617.08;;
54023;SDS011;49584;38.820;-121.162;2022-09-09T17:12:52;705.42;;;612.25;;
54023;SDS011;49584;38.820;-121.162;2022-09-09T17:17:53;690.08;;;607.58;;
54023;SDS011;49584;38.820;-121.162;2022-09-09T17:22:55;701.17;;;618.20;;
54023;SDS011;49584;38.820;-121.162;2022-09-09T17:27:56;680.63;;;599.65;;
54023;SDS011;49584;38.820;-121.162;2022-09-09T17:32:58;602.30;;;535.75;;
54023;SDS011;49584;38.820;-121.162;2022-09-09T17:37:59;527.38;;;456.77;;
54023;SDS011;49584;38.820;-121.162;2022-09-09T17:43:00;477.17;;;394.48;;
54023;SDS011;49584;38.820;-121.162;2022-09-09T17:48:02;461.65;;;374.45;;
54023;SDS011;49584;38.820;-121.162;2022-09-09T17:53:04;438.40;;;355.38;;
54023;SDS011;49584;38.820;-121.162;2022-09-09T17:58:05;418.80;;;327.73;;
54023;SDS011;49584;38.820;-121.162;2022-09-09T18:03:06;355.13;;;294.15;;
54023;SDS011;49584;38.820;-121.162;2022-09-09T18:08:08;393.40;;;311.60;;
54023;SDS011;49584;38.820;-121.162;2022-09-09T18:13:09;388.17;;;307.00;;
54023;SDS011;49584;38.820;-121.162;2022-09-09T18:18:10;347.13;;;283.45;;
54023;SDS011;49584;38.820;-121.162;2022-09-09T18:23:13;319.05;;;262.65;;
54023;SDS011;49584;38.820;-121.162;2022-09-09T18:28:14;300.60;;;245.40;;
54023;SDS011;49584;38.820;-121.162;2022-09-09T18:33:15;243.35;;;196.18;;
54023;SDS011;49584;38.820;-121.162;2022-09-09T18:38:16;212.90;;;173.20;;
54023;SDS011;49584;38.820;-121.162;2022-09-09T18:43:17;139.55;;;109.43;;
54023;SDS011;49584;38.820;-121.162;2022-09-09T18:48:19;108.18;;;91.40;;
54023;SDS011;49584;38.820;-121.162;2022-09-09T18:53:22;91.53;;;73.28;;
54023;SDS011;49584;38.820;-121.162;2022-09-09T18:58:23;79.32;;;65.22;;
54023;SDS011;49584;38.820;-121.162;2022-09-09T19:03:25;65.63;;;50.67;;
54023;SDS011;49584;38.820;-121.162;2022-09-09T19:08:27;62.30;;;48.45;;
54023;SDS011;49584;38.820;-121.162;2022-09-09T19:13:29;63.58;;;48.95;;
54023;SDS011;49584;38.820;-121.162;2022-09-09T19:18:31;52.72;;;39.40;;
54023;SDS011;49584;38.820;-121.162;2022-09-09T19:23:32;59.63;;;41.72;;
54023;SDS011;49584;38.820;-121.162;2022-09-09T19:28:34;57.05;;;44.17;;
54023;SDS011;49584;38.820;-121.162;2022-09-09T19:33:35;58.08;;;48.33;;
54023;SDS011;49584;38.820;-121.162;2022-09-09T19:38:37;74.72;;;55.88;;
54023;SDS011;49584;38.820;-121.162;2022-09-09T19:43:38;76.43;;;62.28;;
54023;SDS011;49584;38.820;-121.162;2022-09-09T19:48:40;104.63;;;85.93;;
54023;SDS011;49584;38.820;-121.162;2022-09-09T19:53:45;116.50;;;89.65;;
54023;SDS011;49584;38.820;-121.162;2022-09-09T19:58:49;161.88;;;127.60;;
54023;SDS011;49584;38.820;-121.162;2022-09-09T20:03:55;150.95;;;122.53;;
54023;SDS011;49584;38.820;-121.162;2022-09-09T20:08:59;206.35;;;179.48;;
54023;SDS011;49584;38.820;-121.162;2022-09-09T20:14:01;169.50;;;140.35;;
54023;SDS011;49584;38.820;-121.162;2022-09-09T20:19:03;141.40;;;116.80;;
54023;SDS011;49584;38.820;-121.162;2022-09-09T20:24:07;129.68;;;109.90;;
54023;SDS011;49584;38.820;-121.162;2022-09-09T20:29:11;122.05;;;105.00;;
54023;SDS011;49584;38.820;-121.162;2022-09-09T20:34:16;178.43;;;116.22;;
54023;SDS011;49584;38.820;-121.162;2022-09-09T20:39:20;131.30;;;110.63;;
54023;SDS011;49584;38.820;-121.162;2022-09-09T20:44:22;116.55;;;96.82;;
54023;SDS011;49584;38.820;-121.162;2022-09-09T20:49:23;109.18;;;89.55;;
54023;SDS011;49584;38.820;-121.162;2022-09-09T20:54:25;98.50;;;81.40;;
54023;SDS011;49584;38.820;-121.162;2022-09-09T20:59:29;119.90;;;91.13;;
54023;SDS011;49584;38.820;-121.162;2022-09-09T21:04:30;91.50;;;81.55;;
54023;SDS011;49584;38.820;-121.162;2022-09-09T21:09:31;83.90;;;71.05;;
54023;SDS011;49584;38.820;-121.162;2022-09-09T21:14:33;78.60;;;70.07;;
54023;SDS011;49584;38.820;-121.162;2022-09-09T21:19:34;96.10;;;69.85;;
54023;SDS011;49584;38.820;-121.162;2022-09-09T21:24:35;99.00;;;75.82;;
54023;SDS011;49584;38.820;-121.162;2022-09-09T21:29:37;104.00;;;87.88;;
54023;SDS011;49584;38.820;-121.162;2022-09-09T21:34:38;115.90;;;94.68;;
54023;SDS011;49584;38.820;-121.162;2022-09-09T21:39:41;112.05;;;98.00;;
54023;SDS011;49584;38.820;-121.162;2022-09-09T21:44:42;130.48;;;104.00;;
54023;SDS011;49584;38.820;-121.162;2022-09-09T21:49:44;114.15;;;94.88;;
54023;SDS011;49584;38.820;-121.162;2022-09-09T21:54:45;110.60;;;96.03;;
54023;SDS011;49584;38.820;-121.162;2022-09-09T21:59:46;129.18;;;108.05;;
54023;SDS011;49584;38.820;-121.162;2022-09-09T22:04:47;127.57;;;107.53;;
54023;SDS011;49584;38.820;-121.162;2022-09-09T22:09:51;128.63;;;110.70;;
54023;SDS011;49584;38.820;-121.162;2022-09-09T22:14:52;139.43;;;113.05;;
54023;SDS011;49584;38.820;-121.162;2022-09-09T22:19:55;136.25;;;107.88;;
54023;SDS011;49584;38.820;-121.162;2022-09-09T22:24:56;130.65;;;107.95;;
54023;SDS011;49584;38.820;-121.162;2022-09-09T22:29:58;140.63;;;116.43;;
54023;SDS011;49584;38.820;-121.162;2022-09-09T22:34:59;139.75;;;115.40;;
54023;SDS011;49584;38.820;-121.162;2022-09-09T22:40:00;128.73;;;99.63;;
54023;SDS011;49584;38.820;-121.162;2022-09-09T22:45:02;120.45;;;102.68;;
54023;SDS011;49584;38.820;-121.162;2022-09-09T22:50:03;109.35;;;93.50;;
54023;SDS011;49584;38.820;-121.162;2022-09-09T22:55:05;118.43;;;91.80;;
54023;SDS011;49584;38.820;-121.162;2022-09-09T23:00:08;111.63;;;86.50;;
54023;SDS011;49584;38.820;-121.162;2022-09-09T23:05:12;110.72;;;89.65;;
54023;SDS011;49584;38.820;-121.162;2022-09-09T23:10:13;124.50;;;99.20;;
54023;SDS011;49584;38.820;-121.162;2022-09-09T23:15:15;124.65;;;101.20;;
54023;SDS011;49584;38.820;-121.162;2022-09-09T23:20:16;132.90;;;108.03;;
54023;SDS011;49584;38.820;-121.162;2022-09-09T23:25:21;137.68;;;110.47;;
54023;SDS011;49584;38.820;-121.162;2022-09-09T23:30:22;125.97;;;107.78;;
54023;SDS011;49584;38.820;-121.162;2022-09-09T23:35:23;130.55;;;110.65;;
54023;SDS011;49584;38.820;-121.162;2022-09-09T23:40:25;121.93;;;103.75;;
54023;SDS011;49584;38.820;-121.162;2022-09-09T23:45:26;124.50;;;103.03;;
54023;SDS011;49584;38.820;-121.162;2022-09-09T23:50:31;131.52;;;102.55;;
54023;SDS011;49584;38.820;-121.162;2022-09-09T23:55:32;128.65;;;106.35;;
